Terminal Aerodrome Forecast
Issued by NWS

Home | Current Version | Previous Version | Text Only | Print | Product List | Glossary On
Versions: 1 2 3 4 5 6 7 8 9 10 11 12 13 14 15
000
FTUS42 KMLB 271720
TAFTIX
TAF
KTIX 271720Z 2718/2818 11010KT P6SM VCSH SCT025 SCT250
      TEMPO 2719/2721 3SM TSRA BKN030CB BKN070
     FM272200 10008KT P6SM VCSH SCT035 BKN080
     FM280200 20003KT P6SM FEW040 SCT120 BKN250
     FM281400 07009KT P6SM SCT025 SCT060 BKN250=

USA.gov is the U.S. government's official web portal to all federal, state and local government web resources and services.